createdAt,value
2022-12-11T00:00:57.725Z,95612.53
2022-12-11T00:02:29.454Z,95615.59
2022-12-11T00:04:02.501Z,95605.59
2022-12-11T00:05:34.206Z,95600.31
2022-12-11T00:07:07.681Z,95608.53
2022-12-11T00:08:39.347Z,95604.44
2022-12-11T00:10:10.950Z,95606.38
2022-12-11T00:11:42.686Z,95607.09
2022-12-11T00:13:14.315Z,95601.34
2022-12-11T00:14:45.910Z,95593.00
2022-12-11T00:16:20.337Z,95600.56
2022-12-11T00:17:54.162Z,95594.47
2022-12-11T00:19:27.163Z,95602.59
2022-12-11T00:21:02.525Z,95598.25
2022-12-11T00:22:34.185Z,95594.75
2022-12-11T00:24:06.540Z,95591.16
2022-12-11T00:25:41.413Z,95597.38
2022-12-11T00:27:13.099Z,95604.53
2022-12-11T00:28:44.850Z,95602.03
2022-12-11T00:30:16.565Z,95599.50
2022-12-11T00:31:48.219Z,95604.91
2022-12-11T00:33:19.859Z,95605.09
2022-12-11T00:34:52.913Z,95599.78
2022-12-11T00:36:28.097Z,95607.25
2022-12-11T00:38:03.056Z,95604.47
2022-12-11T00:39:34.738Z,95604.34
2022-12-11T00:41:06.367Z,95606.00
2022-12-11T00:42:38.017Z,95606.38
2022-12-11T00:44:10.159Z,95601.38
2022-12-11T00:45:42.606Z,95610.00
2022-12-11T00:47:14.258Z,95604.72
2022-12-11T00:48:46.343Z,95602.97
2022-12-11T00:50:19.431Z,95611.22
2022-12-11T00:51:51.047Z,95610.25
2022-12-11T00:53:22.723Z,95606.66
2022-12-11T00:54:54.371Z,95615.19
2022-12-11T00:56:26.231Z,95619.47
2022-12-11T00:57:58.426Z,95617.91
2022-12-11T00:59:30.040Z,95623.25
2022-12-11T01:01:06.124Z,95619.66
2022-12-11T01:02:37.816Z,95631.38
2022-12-11T01:04:09.495Z,95627.91
2022-12-11T01:05:42.547Z,95634.09
2022-12-11T01:07:14.166Z,95629.41
2022-12-11T01:08:46.146Z,95636.66
2022-12-11T01:10:26.726Z,95634.41
2022-12-11T01:11:58.454Z,95639.81
2022-12-11T01:13:30.121Z,95634.59
2022-12-11T01:15:01.866Z,95635.28
2022-12-11T01:16:33.461Z,95631.03
2022-12-11T01:18:05.207Z,95628.22
2022-12-11T01:19:37.335Z,95629.41
2022-12-11T01:21:11.334Z,95630.56
2022-12-11T01:22:42.955Z,95625.72
2022-12-11T01:24:14.570Z,95623.19
2022-12-11T01:25:46.213Z,95631.16
2022-12-11T01:27:17.838Z,95629.78
2022-12-11T01:28:49.619Z,95641.63
2022-12-11T01:30:22.699Z,95633.66
2022-12-11T01:31:54.311Z,95637.94
2022-12-11T01:33:26.133Z,95632.50
2022-12-11T01:34:57.791Z,95637.94
2022-12-11T01:36:30.783Z,95636.28
2022-12-11T01:38:02.886Z,95635.41
2022-12-11T01:39:34.509Z,95631.81
2022-12-11T01:41:06.168Z,95641.03
2022-12-11T01:42:37.852Z,95632.50
2022-12-11T01:44:42.585Z,95634.53
2022-12-11T01:46:14.239Z,95632.13
2022-12-11T01:47:45.881Z,95634.81
2022-12-11T01:49:17.785Z,95638.13
2022-12-11T01:50:50.291Z,95634.63
2022-12-11T01:52:23.712Z,95626.97
2022-12-11T01:53:57.333Z,95632.09
2022-12-11T01:55:28.948Z,95638.50
2022-12-11T01:57:01.589Z,95638.03
2022-12-11T01:58:35.374Z,95636.38
2022-12-11T02:00:08.200Z,95648.31
2022-12-11T02:01:40.965Z,95645.09
2022-12-11T02:03:12.684Z,95639.97
2022-12-11T02:04:44.337Z,95639.28
2022-12-11T02:06:30.115Z,95643.47
2022-12-11T02:08:03.385Z,95645.00
2022-12-11T02:09:35.725Z,95641.50
2022-12-11T02:11:10.152Z,95640.84
2022-12-11T02:12:46.540Z,95644.72
2022-12-11T02:14:20.434Z,95645.78
2022-12-11T02:15:56.297Z,95647.97
2022-12-11T02:17:30.131Z,95649.63
2022-12-11T02:19:07.853Z,95645.53
2022-12-11T02:20:42.572Z,95648.03
2022-12-11T02:22:17.007Z,95653.38
2022-12-11T02:23:58.830Z,95656.38
2022-12-11T02:25:32.663Z,95654.53
2022-12-11T02:27:14.783Z,95648.41
2022-12-11T02:28:49.093Z,95650.59
2022-12-11T02:30:20.797Z,95651.03
2022-12-11T02:31:54.485Z,95651.41
2022-12-11T02:33:29.960Z,95650.59
2022-12-11T02:35:04.856Z,95646.81
2022-12-11T02:36:38.925Z,95647.84
2022-12-11T02:38:12.421Z,95650.47
2022-12-11T02:39:44.023Z,95650.34
2022-12-11T02:41:15.638Z,95655.19
2022-12-11T02:42:47.583Z,95647.38
2022-12-11T02:44:30.409Z,95644.72
2022-12-11T02:46:02.392Z,95651.09
2022-12-11T02:47:34.129Z,95648.91
2022-12-11T02:49:05.841Z,95646.78
2022-12-11T02:50:38.975Z,95651.59
2022-12-11T02:52:11.298Z,95647.13
2022-12-11T02:53:43.026Z,95651.00
2022-12-11T02:55:15.016Z,95644.97
2022-12-11T02:56:48.101Z,95650.97
2022-12-11T02:58:21.544Z,95653.75
2022-12-11T02:59:54.518Z,95662.44
2022-12-11T03:01:26.182Z,95651.91
2022-12-11T03:02:57.913Z,95657.16
2022-12-11T03:04:29.673Z,95648.66
2022-12-11T03:06:01.287Z,95650.66
2022-12-11T03:07:34.593Z,95644.88
2022-12-11T03:09:06.663Z,95653.53
2022-12-11T03:10:38.390Z,95649.72
2022-12-11T03:12:11.682Z,95643.66
2022-12-11T03:13:43.299Z,95649.81
2022-12-11T03:15:18.396Z,95647.91
2022-12-11T03:16:55.434Z,95648.31
2022-12-11T03:18:29.805Z,95649.31
2022-12-11T03:20:05.119Z,95643.53
2022-12-11T03:21:40.370Z,95652.41
2022-12-11T03:23:16.654Z,95654.53
2022-12-11T03:24:50.658Z,95651.13
2022-12-11T03:26:22.283Z,95652.00
2022-12-11T03:27:56.259Z,95645.69
2022-12-11T03:29:31.250Z,95649.59
2022-12-11T03:31:06.823Z,95652.41
2022-12-11T03:32:39.788Z,95652.00
2022-12-11T03:34:13.746Z,95657.44
2022-12-11T03:35:47.423Z,95655.03
2022-12-11T03:37:19.026Z,95652.97
2022-12-11T03:38:51.634Z,95655.44
2022-12-11T03:40:23.276Z,95659.19
2022-12-11T03:41:54.889Z,95654.19
2022-12-11T03:43:26.545Z,95653.06
2022-12-11T03:44:58.234Z,95655.13
2022-12-11T03:46:32.364Z,95662.94
2022-12-11T03:48:04.509Z,95653.81
2022-12-11T03:49:38.471Z,95659.06
2022-12-11T03:51:10.215Z,95657.75
2022-12-11T03:52:45.777Z,95669.03
2022-12-11T03:54:18.045Z,95666.81
2022-12-11T03:55:49.697Z,95667.09
2022-12-11T03:57:22.350Z,95661.38
2022-12-11T03:58:54.256Z,95655.03
2022-12-11T04:00:25.891Z,95655.59
2022-12-11T04:01:59.035Z,95656.66
2022-12-11T04:03:30.748Z,95655.63
2022-12-11T04:05:02.378Z,95662.84
2022-12-11T04:06:34.065Z,95662.81
2022-12-11T04:08:05.855Z,95663.28
2022-12-11T04:09:37.510Z,95665.34
2022-12-11T04:11:28.795Z,95661.66
2022-12-11T04:13:00.523Z,95661.88
2022-12-11T04:14:50.688Z,95656.94
2022-12-11T04:16:22.342Z,95662.16
2022-12-11T04:18:13.859Z,95666.81
2022-12-11T04:20:04.344Z,95661.94
2022-12-11T04:21:54.810Z,95665.66
2022-12-11T04:23:45.350Z,95667.38
2022-12-11T04:25:17.015Z,95670.72
2022-12-11T04:26:48.745Z,95685.44
2022-12-11T04:28:20.358Z,95678.97
2022-12-11T04:29:52.218Z,95686.25
2022-12-11T04:31:23.960Z,95682.13
2022-12-11T04:32:56.963Z,95684.16
2022-12-11T04:34:28.807Z,95683.19
2022-12-11T04:36:00.763Z,95684.34
2022-12-11T04:37:32.442Z,95694.13
2022-12-11T04:39:04.288Z,95682.34
2022-12-11T04:40:35.925Z,95686.47
2022-12-11T04:42:07.547Z,95689.94
2022-12-11T04:43:39.188Z,95685.00
2022-12-11T04:45:11.812Z,95675.50
2022-12-11T04:46:44.656Z,95678.25
2022-12-11T04:48:17.762Z,95673.69
2022-12-11T04:49:49.428Z,95667.50
2022-12-11T04:51:21.123Z,95676.97
2022-12-11T04:52:54.476Z,95680.03
2022-12-11T04:54:26.133Z,95673.88
2022-12-11T04:55:57.878Z,95675.97
2022-12-11T04:57:29.497Z,95672.47
2022-12-11T04:59:01.140Z,95668.47
2022-12-11T05:00:32.759Z,95663.59
2022-12-11T05:02:04.505Z,95663.84
2022-12-11T05:03:37.614Z,95659.91
2022-12-11T05:05:10.409Z,95649.81
2022-12-11T05:06:42.252Z,95665.59
2022-12-11T05:08:13.918Z,95658.59
2022-12-11T05:09:45.600Z,95659.00
2022-12-11T05:11:17.984Z,95668.66
2022-12-11T05:12:49.597Z,95665.88
2022-12-11T05:14:21.362Z,95671.09
2022-12-11T05:15:53.039Z,95669.31
2022-12-11T05:17:24.696Z,95673.59
2022-12-11T05:18:57.699Z,95662.09
2022-12-11T05:20:29.374Z,95674.53
2022-12-11T05:22:01.024Z,95669.59
2022-12-11T05:23:33.093Z,95665.19
2022-12-11T05:25:05.541Z,95665.19
2022-12-11T05:26:37.161Z,95664.47
2022-12-11T05:28:08.785Z,95660.00
2022-12-11T05:29:40.591Z,95665.06
2022-12-11T05:31:12.944Z,95658.41
2022-12-11T05:32:44.624Z,95662.75
2022-12-11T05:34:17.684Z,95666.94
2022-12-11T05:35:49.381Z,95661.53
2022-12-11T05:37:21.033Z,95662.69
2022-12-11T05:38:53.083Z,95656.94
2022-12-11T05:40:24.718Z,95662.88
2022-12-11T05:41:56.352Z,95662.84
2022-12-11T05:43:28.505Z,95663.88
2022-12-11T05:45:00.119Z,95662.28
2022-12-11T05:46:31.799Z,95660.00
2022-12-11T05:48:03.701Z,95657.91
2022-12-11T05:49:36.760Z,95657.38
2022-12-11T05:51:08.543Z,95659.09
2022-12-11T05:52:40.220Z,95662.81
2022-12-11T05:54:11.884Z,95669.53
2022-12-11T05:55:43.492Z,95674.78
2022-12-11T05:57:15.139Z,95665.44
2022-12-11T05:58:47.193Z,95669.34
2022-12-11T06:00:18.860Z,95667.00
2022-12-11T06:01:50.649Z,95661.50
2022-12-11T06:03:22.373Z,95664.09
2022-12-11T06:04:55.393Z,95667.19
2022-12-11T06:06:27.199Z,95669.88
2022-12-11T06:07:58.842Z,95657.44
2022-12-11T06:09:30.464Z,95678.63
2022-12-11T06:11:02.149Z,95668.22
2022-12-11T06:12:33.766Z,95671.91
2022-12-11T06:14:05.448Z,95671.97
2022-12-11T06:15:37.046Z,95672.50
2022-12-11T06:17:08.675Z,95672.91
2022-12-11T06:18:41.041Z,95671.31
2022-12-11T06:20:15.438Z,95672.31
2022-12-11T06:21:48.850Z,95675.38
2022-12-11T06:23:20.523Z,95667.66
2022-12-11T06:24:52.192Z,95668.69
2022-12-11T06:26:23.918Z,95670.25
2022-12-11T06:27:55.545Z,95666.09
2022-12-11T06:29:27.241Z,95673.47
2022-12-11T06:30:58.903Z,95676.25
2022-12-11T06:32:30.693Z,95669.69
2022-12-11T06:34:02.358Z,95666.78
2022-12-11T06:35:41.629Z,95668.66
2022-12-11T06:37:15.152Z,95673.94
2022-12-11T06:38:47.735Z,95667.00
2022-12-11T06:40:19.475Z,95668.88
2022-12-11T06:41:51.158Z,95670.38
2022-12-11T06:43:22.927Z,95670.38
2022-12-11T06:44:55.110Z,95666.25
2022-12-11T06:46:26.749Z,95672.56
2022-12-11T06:47:58.394Z,95665.00
2022-12-11T06:49:30.507Z,95667.56
2022-12-11T06:51:06.772Z,95671.44
2022-12-11T06:52:38.442Z,95669.66
2022-12-11T06:54:10.186Z,95667.59
2022-12-11T06:55:41.888Z,95677.75
2022-12-11T06:57:13.571Z,95674.09
2022-12-11T06:58:45.205Z,95679.03
2022-12-11T07:00:17.081Z,95678.75
2022-12-11T07:01:48.800Z,95683.25
2022-12-11T07:03:20.531Z,95672.03
2022-12-11T07:04:55.188Z,95682.91
2022-12-11T07:06:28.577Z,95681.34
2022-12-11T07:08:00.283Z,95683.16
2022-12-11T07:09:31.971Z,95686.00
2022-12-11T07:11:04.866Z,95681.09
2022-12-11T07:12:36.501Z,95669.63
2022-12-11T07:14:08.930Z,95679.75
2022-12-11T07:15:40.709Z,95688.34
2022-12-11T07:17:12.715Z,95676.94
2022-12-11T07:18:46.941Z,95682.16
2022-12-11T07:20:18.571Z,95679.31
2022-12-11T07:21:51.655Z,95678.28
2022-12-11T07:23:23.331Z,95675.44
2022-12-11T07:24:54.950Z,95681.44
2022-12-11T07:26:26.674Z,95679.09
2022-12-11T07:27:58.291Z,95684.28
2022-12-11T07:29:29.958Z,95681.69
2022-12-11T07:31:05.231Z,95683.00
2022-12-11T07:32:36.954Z,95681.72
2022-12-11T07:34:08.643Z,95686.09
2022-12-11T07:35:40.396Z,95686.88
2022-12-11T07:37:13.379Z,95689.22
2022-12-11T07:38:45.071Z,95685.09
2022-12-11T07:40:16.824Z,95688.75
2022-12-11T07:41:48.503Z,95679.88
2022-12-11T07:43:20.177Z,95682.97
2022-12-11T07:44:51.845Z,95693.38
2022-12-11T07:46:25.109Z,95684.03
2022-12-11T07:47:56.740Z,95682.50
2022-12-11T07:49:28.620Z,95675.22
2022-12-11T07:51:08.146Z,95677.06
2022-12-11T07:52:41.284Z,95680.41
2022-12-11T07:54:16.543Z,95686.13
2022-12-11T07:55:48.239Z,95685.84
2022-12-11T07:57:19.887Z,95683.00
2022-12-11T07:58:51.549Z,95688.16
2022-12-11T08:00:23.232Z,95679.28
2022-12-11T08:01:54.917Z,95681.59
2022-12-11T08:03:26.640Z,95682.66
2022-12-11T08:04:58.260Z,95686.88
2022-12-11T08:06:30.705Z,95693.91
2022-12-11T08:08:03.955Z,95694.66
2022-12-11T08:09:35.608Z,95689.72
2022-12-11T08:11:08.355Z,95685.31
2022-12-11T08:12:39.976Z,95692.09
2022-12-11T08:14:14.371Z,95683.94
2022-12-11T08:15:45.987Z,95679.00
2022-12-11T08:17:17.663Z,95673.00
2022-12-11T08:18:49.431Z,95677.34
2022-12-11T08:20:21.027Z,95677.63
2022-12-11T08:21:52.637Z,95676.38
2022-12-11T08:23:25.638Z,95679.53
2022-12-11T08:24:57.379Z,95673.19
2022-12-11T08:26:29.931Z,95672.94
2022-12-11T08:28:01.586Z,95679.94
2022-12-11T08:29:33.238Z,95673.44
2022-12-11T08:31:05.192Z,95683.34
2022-12-11T08:32:36.930Z,95673.72
2022-12-11T08:34:08.648Z,95683.47
2022-12-11T08:35:40.802Z,95675.50
2022-12-11T08:37:13.586Z,95670.31
2022-12-11T08:38:46.989Z,95676.63
2022-12-11T08:40:18.690Z,95679.38
2022-12-11T08:41:50.309Z,95688.25
2022-12-11T08:43:22.056Z,95688.50
2022-12-11T08:44:53.720Z,95686.34
2022-12-11T08:46:26.061Z,95694.97
2022-12-11T08:47:58.365Z,95688.94
2022-12-11T08:49:34.391Z,95691.28
2022-12-11T08:51:08.439Z,95695.94
2022-12-11T08:52:40.051Z,95692.00
2022-12-11T08:54:13.284Z,95685.28
2022-12-11T08:55:44.959Z,95695.19
2022-12-11T08:57:16.864Z,95694.16
2022-12-11T08:58:48.709Z,95692.06
2022-12-11T09:00:20.343Z,95692.81
2022-12-11T09:01:52.109Z,95694.63
2022-12-11T09:03:23.778Z,95695.94
2022-12-11T09:04:55.401Z,95695.00
2022-12-11T09:06:27.839Z,95694.50
2022-12-11T09:07:59.485Z,95691.75
2022-12-11T09:09:32.522Z,95696.59
2022-12-11T09:11:05.027Z,95691.94
2022-12-11T09:12:37.042Z,95689.25
2022-12-11T09:14:08.858Z,95689.72
2022-12-11T09:15:41.235Z,95692.09
2022-12-11T09:17:12.840Z,95686.19
2022-12-11T09:18:45.251Z,95694.47
2022-12-11T09:20:16.912Z,95677.72
2022-12-11T09:21:48.619Z,95684.72
2022-12-11T09:23:20.436Z,95680.56
2022-12-11T09:24:53.436Z,95690.78
2022-12-11T09:26:25.234Z,95683.22
2022-12-11T09:27:56.856Z,95680.13
2022-12-11T09:29:28.542Z,95683.72
2022-12-11T09:31:00.305Z,95686.00
2022-12-11T09:32:32.020Z,95684.16
2022-12-11T09:34:04.604Z,95670.25
2022-12-11T09:35:37.339Z,95676.00
2022-12-11T09:37:08.987Z,95675.50
2022-12-11T09:38:40.639Z,95668.41
2022-12-11T09:40:13.891Z,95668.38
2022-12-11T09:41:52.461Z,95674.91
2022-12-11T09:43:36.538Z,95671.50
2022-12-11T09:45:11.411Z,95673.84
2022-12-11T09:46:43.356Z,95671.41
2022-12-11T09:48:15.431Z,95671.41
2022-12-11T09:49:47.313Z,95675.81
2022-12-11T09:51:21.426Z,95670.53
2022-12-11T09:53:03.079Z,95666.88
2022-12-11T09:54:34.735Z,95662.66
2022-12-11T09:56:13.821Z,95659.00
2022-12-11T09:57:48.867Z,95666.25
2022-12-11T09:59:23.473Z,95654.16
2022-12-11T10:00:57.195Z,95654.75
2022-12-11T10:02:31.865Z,95652.59
2022-12-11T10:04:10.602Z,95650.72
2022-12-11T10:05:45.357Z,95660.31
2022-12-11T10:07:18.088Z,95645.16
2022-12-11T10:08:56.190Z,95647.41
2022-12-11T10:10:33.926Z,95639.81
2022-12-11T10:12:15.089Z,95639.50
2022-12-11T10:13:49.361Z,95639.16
2022-12-11T10:15:26.662Z,95632.88
2022-12-11T10:17:00.011Z,95631.19
2022-12-11T10:18:31.950Z,95628.28
2022-12-11T10:20:07.827Z,95628.66
2022-12-11T10:21:40.470Z,95630.06
2022-12-11T10:23:19.036Z,95614.69
2022-12-11T10:25:10.712Z,95624.34
2022-12-11T10:26:43.131Z,95628.03
2022-12-11T10:28:16.733Z,95622.25
2022-12-11T10:29:48.844Z,95622.69
2022-12-11T10:31:24.356Z,95625.22
2022-12-11T10:33:00.081Z,95607.72
2022-12-11T10:34:34.662Z,95614.84
2022-12-11T10:36:06.896Z,95608.91
2022-12-11T10:37:38.810Z,95609.97
2022-12-11T10:39:12.628Z,95606.81
2022-12-11T10:40:49.332Z,95606.66
2022-12-11T10:42:23.136Z,95600.59
2022-12-11T10:43:56.298Z,95606.88
2022-12-11T10:45:27.984Z,95594.25
2022-12-11T10:47:03.879Z,95598.13
2022-12-11T10:48:35.517Z,95602.72
2022-12-11T10:50:07.558Z,95594.38
2022-12-11T10:51:39.172Z,95594.16
2022-12-11T10:53:20.067Z,95593.75
2022-12-11T10:54:59.917Z,95596.44
2022-12-11T10:56:32.703Z,95594.03
2022-12-11T10:58:05.304Z,95592.97
2022-12-11T10:59:40.685Z,95595.28
2022-12-11T11:01:14.930Z,95591.47
2022-12-11T11:02:46.741Z,95600.16
2022-12-11T11:04:20.594Z,95593.59
2022-12-11T11:06:02.325Z,95586.13
2022-12-11T11:07:34.409Z,95585.38
2022-12-11T11:09:28.218Z,95579.91
2022-12-11T11:11:00.525Z,95574.31
2022-12-11T11:12:37.684Z,95573.25
2022-12-11T11:14:14.329Z,95580.19
2022-12-11T11:15:47.456Z,95573.63
2022-12-11T11:17:19.236Z,95572.56
2022-12-11T11:18:53.328Z,95574.31
2022-12-11T11:20:26.253Z,95572.09
2022-12-11T11:21:59.195Z,95570.75
2022-12-11T11:23:30.975Z,95570.06
2022-12-11T11:25:04.941Z,95557.84
2022-12-11T11:27:11.205Z,95558.72
2022-12-11T11:28:29.407Z,95556.81
2022-12-11T11:30:01.778Z,95560.78
2022-12-11T11:31:34.979Z,95559.66
2022-12-11T11:33:12.625Z,95555.34
2022-12-11T11:34:45.510Z,95551.25
2022-12-11T11:36:22.221Z,95554.75
2022-12-11T11:37:57.893Z,95551.25
2022-12-11T11:39:32.351Z,95545.31
2022-12-11T11:41:14.691Z,95541.56
2022-12-11T11:42:49.530Z,95542.41
2022-12-11T11:44:25.339Z,95537.25
2022-12-11T11:45:59.708Z,95541.50
2022-12-11T11:47:34.726Z,95549.91
2022-12-11T11:49:10.055Z,95538.19
2022-12-11T11:50:44.987Z,95535.97
2022-12-11T11:52:19.491Z,95530.31
2022-12-11T11:53:51.825Z,95536.25
2022-12-11T11:55:30.125Z,95526.88
2022-12-11T11:57:03.108Z,95528.63
2022-12-11T11:58:38.252Z,95531.03
2022-12-11T12:00:17.575Z,95530.31
2022-12-11T12:01:56.334Z,95538.09
2022-12-11T12:03:29.617Z,95534.72
2022-12-11T12:05:01.823Z,95534.25
2022-12-11T12:06:50.482Z,95530.81
2022-12-11T12:08:30.200Z,95537.22
2022-12-11T12:10:06.507Z,95535.31
2022-12-11T12:11:40.320Z,95534.25
2022-12-11T12:13:44.801Z,95532.50
2022-12-11T12:15:18.441Z,95526.66
2022-12-11T12:16:54.197Z,95527.63
2022-12-11T12:18:31.877Z,95535.03
2022-12-11T12:20:08.945Z,95526.66
2022-12-11T12:21:42.180Z,95527.00
2022-12-11T12:23:36.276Z,95529.91
2022-12-11T12:25:15.869Z,95529.31
2022-12-11T12:26:50.389Z,95526.13
2022-12-11T12:28:28.924Z,95525.38
2022-12-11T12:30:03.428Z,95518.75
2022-12-11T12:31:42.841Z,95519.16
2022-12-11T12:33:20.959Z,95522.25
2022-12-11T12:35:02.694Z,95510.91
2022-12-11T12:36:37.662Z,95515.56
2022-12-11T12:38:12.975Z,95514.41
2022-12-11T12:39:50.128Z,95514.31
2022-12-11T12:41:24.052Z,95521.50
2022-12-11T12:43:00.378Z,95520.66
2022-12-11T12:44:33.271Z,95524.25
2022-12-11T12:46:08.923Z,95514.84
2022-12-11T12:47:40.929Z,95519.78
2022-12-11T12:49:14.435Z,95522.47
2022-12-11T12:50:48.796Z,95519.16
2022-12-11T12:52:21.891Z,95518.97
2022-12-11T12:53:55.617Z,95517.41
2022-12-11T12:55:28.925Z,95509.75
2022-12-11T12:57:00.946Z,95510.81
2022-12-11T12:58:41.346Z,95511.19
2022-12-11T13:00:13.808Z,95514.88
2022-12-11T13:01:46.719Z,95504.97
2022-12-11T13:03:22.723Z,95515.34
2022-12-11T13:05:07.590Z,95511.31
2022-12-11T13:06:41.802Z,95515.38
2022-12-11T13:08:13.746Z,95511.41
2022-12-11T13:09:56.191Z,95512.84
2022-12-11T13:11:31.792Z,95506.56
2022-12-11T13:13:04.126Z,95515.56
2022-12-11T13:14:35.811Z,95506.25
2022-12-11T13:16:24.324Z,95511.13
2022-12-11T13:17:56.006Z,95502.78
2022-12-11T13:19:27.946Z,95510.16
2022-12-11T13:20:59.571Z,95510.84
2022-12-11T13:22:32.644Z,95506.97
2022-12-11T13:24:14.176Z,95504.34
2022-12-11T13:25:48.293Z,95502.78
2022-12-11T13:27:23.676Z,95498.63
2022-12-11T13:28:55.364Z,95499.13
2022-12-11T13:30:28.462Z,95493.59
2022-12-11T13:32:01.398Z,95495.72
2022-12-11T13:33:33.146Z,95493.66
2022-12-11T13:35:06.017Z,95500.75
2022-12-11T13:36:38.957Z,95502.47
2022-12-11T13:38:15.874Z,95502.19
2022-12-11T13:39:47.765Z,95490.25
2022-12-11T13:41:20.240Z,95494.09
2022-12-11T13:42:52.846Z,95502.94
2022-12-11T13:44:25.801Z,95486.59
2022-12-11T13:45:57.897Z,95492.31
2022-12-11T13:47:29.561Z,95489.88
2022-12-11T13:49:01.923Z,95499.19
2022-12-11T13:50:34.154Z,95497.81
2022-12-11T13:52:06.107Z,95502.38
2022-12-11T13:53:39.090Z,95493.63
2022-12-11T13:55:17.487Z,95498.00
2022-12-11T13:56:56.821Z,95506.03
2022-12-11T13:58:28.899Z,95507.81
2022-12-11T14:00:00.657Z,95509.13
2022-12-11T14:01:32.763Z,95505.88
2022-12-11T14:03:07.378Z,95509.94
2022-12-11T14:04:39.050Z,95511.25
2022-12-11T14:06:16.596Z,95511.84
2022-12-11T14:07:52.150Z,95508.00
2022-12-11T14:09:26.576Z,95508.38
2022-12-11T14:10:58.250Z,95505.50
2022-12-11T14:12:30.383Z,95511.22
2022-12-11T14:14:03.494Z,95507.13
2022-12-11T14:15:35.588Z,95510.72
2022-12-11T14:17:11.370Z,95510.53
2022-12-11T14:18:43.018Z,95514.03
2022-12-11T14:20:17.416Z,95521.66
2022-12-11T14:22:04.658Z,95521.75
2022-12-11T14:23:36.703Z,95522.34
2022-12-11T14:25:19.107Z,95519.16
2022-12-11T14:26:51.279Z,95525.06
2022-12-11T14:28:23.389Z,95524.97
2022-12-11T14:29:55.344Z,95526.41
2022-12-11T14:31:28.108Z,95532.78
2022-12-11T14:33:01.267Z,95537.25
2022-12-11T14:34:35.809Z,95531.34
2022-12-11T14:36:08.242Z,95535.19
2022-12-11T14:37:39.914Z,95536.19
2022-12-11T14:39:13.540Z,95531.53
2022-12-11T14:40:48.346Z,95536.88
2022-12-11T14:42:20.855Z,95537.34
2022-12-11T14:43:53.796Z,95539.69
2022-12-11T14:45:30.284Z,95532.28
2022-12-11T14:47:03.146Z,95540.63
2022-12-11T14:48:36.242Z,95540.34
2022-12-11T14:50:08.738Z,95547.78
2022-12-11T14:51:40.574Z,95544.09
2022-12-11T14:53:15.407Z,95536.53
2022-12-11T14:54:52.751Z,95542.97
2022-12-11T14:56:26.541Z,95551.94
2022-12-11T14:58:00.180Z,95547.00
2022-12-11T14:59:32.476Z,95556.59
2022-12-11T15:01:05.433Z,95555.25
2022-12-11T15:02:37.226Z,95548.88
2022-12-11T15:04:20.052Z,95553.13
2022-12-11T15:05:52.654Z,95555.94
2022-12-11T15:07:24.304Z,95552.50
2022-12-11T15:08:55.991Z,95559.84
2022-12-11T15:10:31.442Z,95556.81
2022-12-11T15:12:10.461Z,95561.88
2022-12-11T15:13:49.580Z,95568.25
2022-12-11T15:15:21.243Z,95563.09
2022-12-11T15:16:54.402Z,95567.25
2022-12-11T15:18:27.373Z,95565.84
2022-12-11T15:20:02.789Z,95568.66
2022-12-11T15:21:38.736Z,95571.69
2022-12-11T15:23:15.511Z,95563.78
2022-12-11T15:24:51.205Z,95567.97
2022-12-11T15:26:33.063Z,95568.25
2022-12-11T15:28:22.794Z,95567.25
2022-12-11T15:29:54.577Z,95564.56
2022-12-11T15:31:27.224Z,95569.59
2022-12-11T15:33:15.613Z,95565.97
2022-12-11T15:34:48.290Z,95567.13
2022-12-11T15:36:23.622Z,95561.75
2022-12-11T15:37:56.120Z,95569.72
2022-12-11T15:39:27.794Z,95570.56
2022-12-11T15:40:59.482Z,95577.91
2022-12-11T15:42:32.084Z,95570.19
2022-12-11T15:44:17.801Z,95575.41
2022-12-11T15:45:52.413Z,95572.41
2022-12-11T15:47:25.048Z,95580.06
2022-12-11T15:48:56.916Z,95580.91
2022-12-11T15:50:28.902Z,95574.97
2022-12-11T15:52:00.561Z,95580.59
2022-12-11T15:53:32.231Z,95584.34
2022-12-11T15:55:04.760Z,95581.03
2022-12-11T15:56:36.391Z,95582.75
2022-12-11T15:58:09.426Z,95579.63
2022-12-11T15:59:42.600Z,95578.25
2022-12-11T16:01:14.417Z,95581.75
2022-12-11T16:02:46.256Z,95581.06
2022-12-11T16:04:17.952Z,95570.09
2022-12-11T16:05:49.782Z,95578.63
2022-12-11T16:07:22.415Z,95575.19
2022-12-11T16:08:54.058Z,95578.31
2022-12-11T16:10:26.139Z,95575.69
2022-12-11T16:11:57.820Z,95574.75
2022-12-11T16:13:29.553Z,95585.22
2022-12-11T16:15:02.659Z,95580.50
2022-12-11T16:16:34.381Z,95582.16
2022-12-11T16:18:07.122Z,95589.47
2022-12-11T16:19:38.853Z,95579.31
2022-12-11T16:21:10.488Z,95584.25
2022-12-11T16:22:42.127Z,95580.59
2022-12-11T16:24:13.846Z,95584.72
2022-12-11T16:25:45.871Z,95584.22
2022-12-11T16:27:22.939Z,95581.69
2022-12-11T16:28:54.960Z,95580.69
2022-12-11T16:30:28.454Z,95580.78
2022-12-11T16:32:00.155Z,95585.53
2022-12-11T16:33:31.828Z,95578.72
2022-12-11T16:35:03.913Z,95580.53
2022-12-11T16:36:35.585Z,95575.88
2022-12-11T16:38:07.800Z,95578.69
2022-12-11T16:39:39.588Z,95577.13
2022-12-11T16:41:11.320Z,95575.03
2022-12-11T16:42:43.207Z,95585.03
2022-12-11T16:44:19.025Z,95573.19
2022-12-11T16:46:02.435Z,95580.19
2022-12-11T16:47:34.181Z,95585.47
2022-12-11T16:49:05.868Z,95572.00
2022-12-11T16:50:39.829Z,95584.56
2022-12-11T16:52:18.991Z,95582.84
2022-12-11T16:53:53.691Z,95589.38
2022-12-11T16:55:25.421Z,95583.03
2022-12-11T16:56:59.758Z,95579.22
2022-12-11T16:58:31.409Z,95572.13
2022-12-11T17:00:03.589Z,95576.66
2022-12-11T17:01:36.661Z,95570.47
2022-12-11T17:03:08.354Z,95581.69
2022-12-11T17:04:40.156Z,95568.88
2022-12-11T17:06:13.421Z,95573.78
2022-12-11T17:07:45.109Z,95573.03
2022-12-11T17:09:16.798Z,95571.50
2022-12-11T17:10:48.424Z,95568.38
2022-12-11T17:12:25.785Z,95563.75
2022-12-11T17:13:58.186Z,95574.19
2022-12-11T17:15:29.908Z,95566.19
2022-12-11T17:17:09.213Z,95565.41
2022-12-11T17:18:40.869Z,95562.28
2022-12-11T17:20:12.542Z,95564.63
2022-12-11T17:21:49.886Z,95562.22
2022-12-11T17:23:26.265Z,95563.25
2022-12-11T17:24:58.011Z,95559.16
2022-12-11T17:26:29.646Z,95560.97
2022-12-11T17:28:01.360Z,95557.91
2022-12-11T17:29:32.978Z,95563.66
2022-12-11T17:31:05.000Z,95565.41
2022-12-11T17:32:38.041Z,95559.69
2022-12-11T17:34:09.683Z,95564.13
2022-12-11T17:35:41.340Z,95562.03
2022-12-11T17:37:13.028Z,95566.97
2022-12-11T17:38:44.702Z,95567.53
2022-12-11T17:40:16.449Z,95563.34
2022-12-11T17:41:48.103Z,95561.03
2022-12-11T17:43:19.746Z,95562.16
2022-12-11T17:44:51.414Z,95563.66
2022-12-11T17:46:23.174Z,95555.84
2022-12-11T17:47:56.311Z,95561.31
2022-12-11T17:49:27.979Z,95561.66
2022-12-11T17:51:02.292Z,95567.72
2022-12-11T17:52:36.403Z,95565.09
2022-12-11T17:54:10.029Z,95552.56
2022-12-11T17:55:44.924Z,95559.00
2022-12-11T17:57:16.570Z,95552.31
2022-12-11T17:58:48.400Z,95554.06
2022-12-11T18:00:20.119Z,95556.88
2022-12-11T18:01:51.797Z,95551.59
2022-12-11T18:03:25.037Z,95555.28
2022-12-11T18:04:56.667Z,95545.31
2022-12-11T18:06:28.515Z,95551.63
2022-12-11T18:08:00.295Z,95551.88
2022-12-11T18:09:32.013Z,95552.59
2022-12-11T18:11:06.776Z,95546.34
2022-12-11T18:12:38.407Z,95545.53
2022-12-11T18:14:15.279Z,95549.69
2022-12-11T18:15:59.354Z,95544.97
2022-12-11T18:17:31.078Z,95555.75
2022-12-11T18:19:04.146Z,95555.75
2022-12-11T18:20:36.008Z,95555.47